sensor_id;sensor_type;location;lat;lon;timestamp;temperature;humidity
9223;DHT22;7557;51.698;3.942;2022-12-29T00:01:33;11.70;99.90
9223;DHT22;7557;51.698;3.942;2022-12-29T00:04:00;11.60;99.90
9223;DHT22;7557;51.698;3.942;2022-12-29T00:06:28;11.60;99.90
9223;DHT22;7557;51.698;3.942;2022-12-29T00:08:55;11.60;99.90
9223;DHT22;7557;51.698;3.942;2022-12-29T00:11:25;11.60;99.90
9223;DHT22;7557;51.698;3.942;2022-12-29T00:13:53;11.70;99.90
9223;DHT22;7557;51.698;3.942;2022-12-29T00:16:41;11.60;99.90
9223;DHT22;7557;51.698;3.942;2022-12-29T00:19:08;11.60;99.90
9223;DHT22;7557;51.698;3.942;2022-12-29T00:21:55;11.50;99.90
9223;DHT22;7557;51.698;3.942;2022-12-29T00:24:40;11.50;99.90
9223;DHT22;7557;51.698;3.942;2022-12-29T00:27:29;11.50;99.90
9223;DHT22;7557;51.698;3.942;2022-12-29T00:30:29;11.50;99.90
9223;DHT22;7557;51.698;3.942;2022-12-29T00:33:16;11.40;99.90
9223;DHT22;7557;51.698;3.942;2022-12-29T00:36:03;11.40;99.90
9223;DHT22;7557;51.698;3.942;2022-12-29T00:38:31;11.40;99.90
9223;DHT22;7557;51.698;3.942;2022-12-29T00:41:17;11.40;99.90
9223;DHT22;7557;51.698;3.942;2022-12-29T00:44:03;11.40;99.90
9223;DHT22;7557;51.698;3.942;2022-12-29T00:46:36;11.30;99.90
9223;DHT22;7557;51.698;3.942;2022-12-29T00:49:04;11.30;99.90
9223;DHT22;7557;51.698;3.942;2022-12-29T00:52:09;11.30;99.90
9223;DHT22;7557;51.698;3.942;2022-12-29T00:54:38;11.40;99.90
9223;DHT22;7557;51.698;3.942;2022-12-29T00:57:07;11.30;99.90
9223;DHT22;7557;51.698;3.942;2022-12-29T00:59:37;11.30;99.90
9223;DHT22;7557;51.698;3.942;2022-12-29T01:02:05;11.30;99.90
9223;DHT22;7557;51.698;3.942;2022-12-29T01:04:32;11.20;99.90
9223;DHT22;7557;51.698;3.942;2022-12-29T01:07:00;11.20;99.90
9223;DHT22;7557;51.698;3.942;2022-12-29T01:09:27;11.20;99.90
9223;DHT22;7557;51.698;3.942;2022-12-29T01:12:12;11.20;99.90
9223;DHT22;7557;51.698;3.942;2022-12-29T01:14:40;11.30;99.90
9223;DHT22;7557;51.698;3.942;2022-12-29T01:17:07;11.30;99.90
9223;DHT22;7557;51.698;3.942;2022-12-29T01:19:35;11.30;99.90
9223;DHT22;7557;51.698;3.942;2022-12-29T01:22:02;11.30;99.90
9223;DHT22;7557;51.698;3.942;2022-12-29T01:24:29;11.30;99.90
9223;DHT22;7557;51.698;3.942;2022-12-29T01:26:56;11.30;99.90
9223;DHT22;7557;51.698;3.942;2022-12-29T01:29:23;11.30;99.90
9223;DHT22;7557;51.698;3.942;2022-12-29T01:31:52;11.30;99.90
9223;DHT22;7557;51.698;3.942;2022-12-29T01:34:19;11.20;99.90
9223;DHT22;7557;51.698;3.942;2022-12-29T01:36:46;11.20;99.90
9223;DHT22;7557;51.698;3.942;2022-12-29T01:39:13;11.20;99.90
9223;DHT22;7557;51.698;3.942;2022-12-29T01:41:40;11.20;99.90
9223;DHT22;7557;51.698;3.942;2022-12-29T01:44:47;11.20;99.90
9223;DHT22;7557;51.698;3.942;2022-12-29T01:47:21;11.20;99.90
9223;DHT22;7557;51.698;3.942;2022-12-29T01:49:51;11.30;99.90
9223;DHT22;7557;51.698;3.942;2022-12-29T01:52:19;11.30;99.90
9223;DHT22;7557;51.698;3.942;2022-12-29T01:54:49;11.20;99.90
9223;DHT22;7557;51.698;3.942;2022-12-29T01:57:22;11.20;99.90
9223;DHT22;7557;51.698;3.942;2022-12-29T01:59:55;11.30;99.90
9223;DHT22;7557;51.698;3.942;2022-12-29T02:02:25;11.30;99.90
9223;DHT22;7557;51.698;3.942;2022-12-29T02:04:53;11.30;99.90
9223;DHT22;7557;51.698;3.942;2022-12-29T02:07:25;11.30;99.90
9223;DHT22;7557;51.698;3.942;2022-12-29T02:09:54;11.30;99.90
9223;DHT22;7557;51.698;3.942;2022-12-29T02:12:23;11.20;99.90
9223;DHT22;7557;51.698;3.942;2022-12-29T02:14:57;11.30;99.90
9223;DHT22;7557;51.698;3.942;2022-12-29T02:17:39;11.20;99.90
9223;DHT22;7557;51.698;3.942;2022-12-29T02:23:33;11.20;99.90
9223;DHT22;7557;51.698;3.942;2022-12-29T02:32:08;11.10;99.90
9223;DHT22;7557;51.698;3.942;2022-12-29T02:34:47;11.10;99.90
9223;DHT22;7557;51.698;3.942;2022-12-29T02:37:21;11.10;99.90
9223;DHT22;7557;51.698;3.942;2022-12-29T02:39:53;11.10;99.90
9223;DHT22;7557;51.698;3.942;2022-12-29T02:42:28;11.00;99.90
9223;DHT22;7557;51.698;3.942;2022-12-29T02:45:03;11.00;99.90
9223;DHT22;7557;51.698;3.942;2022-12-29T02:47:37;11.00;99.90
9223;DHT22;7557;51.698;3.942;2022-12-29T02:50:10;11.00;99.90
9223;DHT22;7557;51.698;3.942;2022-12-29T02:52:44;11.00;99.90
9223;DHT22;7557;51.698;3.942;2022-12-29T02:55:13;11.00;99.90
9223;DHT22;7557;51.698;3.942;2022-12-29T02:57:39;11.10;99.90
9223;DHT22;7557;51.698;3.942;2022-12-29T03:00:09;11.10;99.90
9223;DHT22;7557;51.698;3.942;2022-12-29T03:02:54;11.10;99.90
9223;DHT22;7557;51.698;3.942;2022-12-29T03:05:42;11.10;99.90
9223;DHT22;7557;51.698;3.942;2022-12-29T03:08:22;11.10;99.90
9223;DHT22;7557;51.698;3.942;2022-12-29T03:10:57;11.10;99.90
9223;DHT22;7557;51.698;3.942;2022-12-29T03:13:29;11.00;99.90
9223;DHT22;7557;51.698;3.942;2022-12-29T03:16:19;11.00;99.90
9223;DHT22;7557;51.698;3.942;2022-12-29T03:18:54;11.00;99.90
9223;DHT22;7557;51.698;3.942;2022-12-29T03:21:29;11.00;99.90
9223;DHT22;7557;51.698;3.942;2022-12-29T03:24:11;11.00;99.90
9223;DHT22;7557;51.698;3.942;2022-12-29T03:26:40;11.00;99.90
9223;DHT22;7557;51.698;3.942;2022-12-29T03:29:08;11.00;99.90
9223;DHT22;7557;51.698;3.942;2022-12-29T03:31:37;11.00;99.90
9223;DHT22;7557;51.698;3.942;2022-12-29T03:34:07;11.00;99.90
9223;DHT22;7557;51.698;3.942;2022-12-29T03:36:39;11.00;99.90
9223;DHT22;7557;51.698;3.942;2022-12-29T03:39:10;11.00;99.90
9223;DHT22;7557;51.698;3.942;2022-12-29T03:41:41;10.90;99.90
9223;DHT22;7557;51.698;3.942;2022-12-29T03:44:10;10.80;99.90
9223;DHT22;7557;51.698;3.942;2022-12-29T03:46:38;10.70;99.90
9223;DHT22;7557;51.698;3.942;2022-12-29T03:49:07;10.70;99.90
9223;DHT22;7557;51.698;3.942;2022-12-29T03:51:34;10.60;99.90
9223;DHT22;7557;51.698;3.942;2022-12-29T03:54:01;10.50;99.90
9223;DHT22;7557;51.698;3.942;2022-12-29T03:56:28;10.40;99.90
9223;DHT22;7557;51.698;3.942;2022-12-29T03:58:55;10.40;99.90
9223;DHT22;7557;51.698;3.942;2022-12-29T04:01:22;10.40;99.90
9223;DHT22;7557;51.698;3.942;2022-12-29T04:03:49;10.30;99.90
9223;DHT22;7557;51.698;3.942;2022-12-29T04:06:17;10.30;99.90
9223;DHT22;7557;51.698;3.942;2022-12-29T04:08:44;10.30;99.90
9223;DHT22;7557;51.698;3.942;2022-12-29T04:11:12;10.30;99.90
9223;DHT22;7557;51.698;3.942;2022-12-29T04:13:39;10.30;99.90
9223;DHT22;7557;51.698;3.942;2022-12-29T04:16:07;10.30;99.90
9223;DHT22;7557;51.698;3.942;2022-12-29T04:18:34;10.30;99.90
9223;DHT22;7557;51.698;3.942;2022-12-29T04:21:01;10.30;99.90
9223;DHT22;7557;51.698;3.942;2022-12-29T04:23:33;10.40;99.90
9223;DHT22;7557;51.698;3.942;2022-12-29T04:26:00;10.40;99.90
9223;DHT22;7557;51.698;3.942;2022-12-29T04:28:28;10.40;99.90
9223;DHT22;7557;51.698;3.942;2022-12-29T04:30:55;10.40;99.90
9223;DHT22;7557;51.698;3.942;2022-12-29T04:33:22;10.40;99.90
9223;DHT22;7557;51.698;3.942;2022-12-29T04:35:50;10.40;99.90
9223;DHT22;7557;51.698;3.942;2022-12-29T04:38:18;10.40;99.90
9223;DHT22;7557;51.698;3.942;2022-12-29T04:40:47;10.40;99.90
9223;DHT22;7557;51.698;3.942;2022-12-29T04:43:15;10.40;99.90
9223;DHT22;7557;51.698;3.942;2022-12-29T04:45:44;10.40;99.90
9223;DHT22;7557;51.698;3.942;2022-12-29T04:48:12;10.50;99.90
9223;DHT22;7557;51.698;3.942;2022-12-29T04:50:40;10.50;99.90
9223;DHT22;7557;51.698;3.942;2022-12-29T04:53:08;10.40;99.90
9223;DHT22;7557;51.698;3.942;2022-12-29T04:55:35;10.50;99.90
9223;DHT22;7557;51.698;3.942;2022-12-29T04:58:04;10.40;99.90
9223;DHT22;7557;51.698;3.942;2022-12-29T05:00:31;10.40;99.90
9223;DHT22;7557;51.698;3.942;2022-12-29T05:02:58;10.40;99.90
9223;DHT22;7557;51.698;3.942;2022-12-29T05:05:25;10.40;99.90
9223;DHT22;7557;51.698;3.942;2022-12-29T05:07:52;10.40;99.90
9223;DHT22;7557;51.698;3.942;2022-12-29T05:10:19;10.40;99.90
9223;DHT22;7557;51.698;3.942;2022-12-29T05:12:47;10.40;99.90
9223;DHT22;7557;51.698;3.942;2022-12-29T05:15:15;10.40;99.90
9223;DHT22;7557;51.698;3.942;2022-12-29T05:17:42;10.40;99.90
9223;DHT22;7557;51.698;3.942;2022-12-29T05:20:10;10.50;99.90
9223;DHT22;7557;51.698;3.942;2022-12-29T05:22:37;10.50;99.90
9223;DHT22;7557;51.698;3.942;2022-12-29T05:25:05;10.50;99.90
9223;DHT22;7557;51.698;3.942;2022-12-29T05:27:32;10.50;99.90
9223;DHT22;7557;51.698;3.942;2022-12-29T05:29:59;10.50;99.90
9223;DHT22;7557;51.698;3.942;2022-12-29T05:32:28;10.50;99.90
9223;DHT22;7557;51.698;3.942;2022-12-29T05:34:55;10.50;99.90
9223;DHT22;7557;51.698;3.942;2022-12-29T05:37:22;10.50;99.90
9223;DHT22;7557;51.698;3.942;2022-12-29T05:39:49;10.50;99.90
9223;DHT22;7557;51.698;3.942;2022-12-29T05:42:16;10.50;99.90
9223;DHT22;7557;51.698;3.942;2022-12-29T05:44:43;10.50;99.90
9223;DHT22;7557;51.698;3.942;2022-12-29T05:47:10;10.50;99.90
9223;DHT22;7557;51.698;3.942;2022-12-29T05:49:39;10.50;99.90
9223;DHT22;7557;51.698;3.942;2022-12-29T05:52:06;10.40;99.90
9223;DHT22;7557;51.698;3.942;2022-12-29T05:54:33;10.40;99.90
9223;DHT22;7557;51.698;3.942;2022-12-29T05:57:00;10.40;99.90
9223;DHT22;7557;51.698;3.942;2022-12-29T05:59:27;10.30;99.90
9223;DHT22;7557;51.698;3.942;2022-12-29T06:01:54;10.20;99.90
9223;DHT22;7557;51.698;3.942;2022-12-29T06:04:21;10.20;99.90
9223;DHT22;7557;51.698;3.942;2022-12-29T06:06:49;10.10;99.90
9223;DHT22;7557;51.698;3.942;2022-12-29T06:09:16;10.00;99.90
9223;DHT22;7557;51.698;3.942;2022-12-29T06:11:44;10.00;99.90
9223;DHT22;7557;51.698;3.942;2022-12-29T06:14:11;9.90;99.90
9223;DHT22;7557;51.698;3.942;2022-12-29T06:16:38;9.90;99.90
9223;DHT22;7557;51.698;3.942;2022-12-29T06:19:05;9.90;99.90
9223;DHT22;7557;51.698;3.942;2022-12-29T06:21:32;9.80;99.90
9223;DHT22;7557;51.698;3.942;2022-12-29T06:24:00;9.80;99.90
9223;DHT22;7557;51.698;3.942;2022-12-29T06:26:27;9.80;99.90
9223;DHT22;7557;51.698;3.942;2022-12-29T06:28:55;9.70;99.90
9223;DHT22;7557;51.698;3.942;2022-12-29T06:31:22;9.70;99.90
9223;DHT22;7557;51.698;3.942;2022-12-29T06:33:49;9.70;99.90
9223;DHT22;7557;51.698;3.942;2022-12-29T06:36:17;9.70;99.90
9223;DHT22;7557;51.698;3.942;2022-12-29T06:38:45;9.70;99.90
9223;DHT22;7557;51.698;3.942;2022-12-29T06:41:13;9.70;99.90
9223;DHT22;7557;51.698;3.942;2022-12-29T06:43:41;9.70;99.90
9223;DHT22;7557;51.698;3.942;2022-12-29T06:46:09;9.70;99.90
9223;DHT22;7557;51.698;3.942;2022-12-29T06:48:36;9.70;99.90
9223;DHT22;7557;51.698;3.942;2022-12-29T06:51:04;9.70;99.90
9223;DHT22;7557;51.698;3.942;2022-12-29T06:53:31;9.80;99.90
9223;DHT22;7557;51.698;3.942;2022-12-29T06:55:59;9.80;99.90
9223;DHT22;7557;51.698;3.942;2022-12-29T06:58:28;9.80;99.90
9223;DHT22;7557;51.698;3.942;2022-12-29T07:00:55;9.90;99.90
9223;DHT22;7557;51.698;3.942;2022-12-29T07:03:23;9.90;99.90
9223;DHT22;7557;51.698;3.942;2022-12-29T07:05:51;9.90;99.90
9223;DHT22;7557;51.698;3.942;2022-12-29T07:08:19;9.90;99.90
9223;DHT22;7557;51.698;3.942;2022-12-29T07:10:47;9.90;99.90
9223;DHT22;7557;51.698;3.942;2022-12-29T07:13:15;9.90;99.90
9223;DHT22;7557;51.698;3.942;2022-12-29T07:15:44;9.90;99.90
9223;DHT22;7557;51.698;3.942;2022-12-29T07:18:11;9.90;99.90
9223;DHT22;7557;51.698;3.942;2022-12-29T07:20:38;9.90;99.90
9223;DHT22;7557;51.698;3.942;2022-12-29T07:23:06;10.00;99.90
9223;DHT22;7557;51.698;3.942;2022-12-29T07:25:33;10.00;99.90
9223;DHT22;7557;51.698;3.942;2022-12-29T07:28:01;10.10;99.90
9223;DHT22;7557;51.698;3.942;2022-12-29T07:30:29;10.10;99.90
9223;DHT22;7557;51.698;3.942;2022-12-29T07:32:58;10.10;99.90
9223;DHT22;7557;51.698;3.942;2022-12-29T07:35:26;10.10;99.90
9223;DHT22;7557;51.698;3.942;2022-12-29T07:37:53;10.20;99.90
9223;DHT22;7557;51.698;3.942;2022-12-29T07:40:20;10.20;99.90
9223;DHT22;7557;51.698;3.942;2022-12-29T07:42:48;10.20;99.90
9223;DHT22;7557;51.698;3.942;2022-12-29T07:45:15;10.20;99.90
9223;DHT22;7557;51.698;3.942;2022-12-29T07:47:43;10.20;99.90
9223;DHT22;7557;51.698;3.942;2022-12-29T07:50:12;10.20;99.90
9223;DHT22;7557;51.698;3.942;2022-12-29T07:52:39;10.20;99.90
9223;DHT22;7557;51.698;3.942;2022-12-29T07:55:07;10.20;99.90
9223;DHT22;7557;51.698;3.942;2022-12-29T07:57:35;10.30;99.90
9223;DHT22;7557;51.698;3.942;2022-12-29T08:00:03;10.20;99.90
9223;DHT22;7557;51.698;3.942;2022-12-29T08:02:31;10.20;99.90
9223;DHT22;7557;51.698;3.942;2022-12-29T08:04:58;10.20;99.90
9223;DHT22;7557;51.698;3.942;2022-12-29T08:07:27;10.20;99.90
9223;DHT22;7557;51.698;3.942;2022-12-29T08:09:55;10.20;99.90
9223;DHT22;7557;51.698;3.942;2022-12-29T08:12:23;10.10;99.90
9223;DHT22;7557;51.698;3.942;2022-12-29T08:14:50;10.10;99.90
9223;DHT22;7557;51.698;3.942;2022-12-29T08:17:18;10.10;99.90
9223;DHT22;7557;51.698;3.942;2022-12-29T08:19:45;10.10;99.90
9223;DHT22;7557;51.698;3.942;2022-12-29T08:22:13;10.00;99.90
9223;DHT22;7557;51.698;3.942;2022-12-29T08:24:42;10.00;99.90
9223;DHT22;7557;51.698;3.942;2022-12-29T08:27:10;10.00;99.90
9223;DHT22;7557;51.698;3.942;2022-12-29T08:29:37;10.00;99.90
9223;DHT22;7557;51.698;3.942;2022-12-29T08:32:05;9.90;99.90
9223;DHT22;7557;51.698;3.942;2022-12-29T08:34:32;9.90;99.90
9223;DHT22;7557;51.698;3.942;2022-12-29T08:37:00;9.90;99.90
9223;DHT22;7557;51.698;3.942;2022-12-29T08:39:28;9.90;99.90
9223;DHT22;7557;51.698;3.942;2022-12-29T08:41:56;9.80;99.90
9223;DHT22;7557;51.698;3.942;2022-12-29T08:44:24;9.80;99.90
9223;DHT22;7557;51.698;3.942;2022-12-29T08:46:51;9.90;99.90
9223;DHT22;7557;51.698;3.942;2022-12-29T08:49:19;9.90;99.90
9223;DHT22;7557;51.698;3.942;2022-12-29T08:51:46;9.90;99.90
9223;DHT22;7557;51.698;3.942;2022-12-29T08:54:14;9.90;99.90
9223;DHT22;7557;51.698;3.942;2022-12-29T08:56:41;9.90;99.90
9223;DHT22;7557;51.698;3.942;2022-12-29T08:59:10;9.90;99.90
9223;DHT22;7557;51.698;3.942;2022-12-29T09:01:38;10.00;99.90
9223;DHT22;7557;51.698;3.942;2022-12-29T09:04:06;10.00;99.90
9223;DHT22;7557;51.698;3.942;2022-12-29T09:06:34;10.10;99.90
9223;DHT22;7557;51.698;3.942;2022-12-29T09:09:01;10.10;99.90
9223;DHT22;7557;51.698;3.942;2022-12-29T09:11:29;10.10;99.90
9223;DHT22;7557;51.698;3.942;2022-12-29T09:13:57;10.20;99.90
9223;DHT22;7557;51.698;3.942;2022-12-29T09:16:26;10.20;99.90
9223;DHT22;7557;51.698;3.942;2022-12-29T09:18:54;10.20;99.90
9223;DHT22;7557;51.698;3.942;2022-12-29T09:21:21;10.20;99.90
9223;DHT22;7557;51.698;3.942;2022-12-29T09:23:49;10.20;99.90
9223;DHT22;7557;51.698;3.942;2022-12-29T09:26:16;10.20;99.90
9223;DHT22;7557;51.698;3.942;2022-12-29T09:28:44;10.20;99.90
9223;DHT22;7557;51.698;3.942;2022-12-29T09:31:13;10.20;99.90
9223;DHT22;7557;51.698;3.942;2022-12-29T09:33:42;10.30;99.90
9223;DHT22;7557;51.698;3.942;2022-12-29T09:36:09;10.30;99.90
9223;DHT22;7557;51.698;3.942;2022-12-29T09:38:37;10.30;99.90
9223;DHT22;7557;51.698;3.942;2022-12-29T09:41:07;10.30;99.90
9223;DHT22;7557;51.698;3.942;2022-12-29T09:43:59;10.40;99.90
9223;DHT22;7557;51.698;3.942;2022-12-29T09:46:32;10.40;99.90
9223;DHT22;7557;51.698;3.942;2022-12-29T09:49:11;10.40;99.90
9223;DHT22;7557;51.698;3.942;2022-12-29T09:51:43;10.40;99.90
9223;DHT22;7557;51.698;3.942;2022-12-29T09:54:23;10.40;99.90
9223;DHT22;7557;51.698;3.942;2022-12-29T09:56:52;10.40;99.90
9223;DHT22;7557;51.698;3.942;2022-12-29T09:59:22;10.50;99.90
9223;DHT22;7557;51.698;3.942;2022-12-29T10:01:56;10.50;99.90
9223;DHT22;7557;51.698;3.942;2022-12-29T10:04:28;10.50;99.90
9223;DHT22;7557;51.698;3.942;2022-12-29T10:06:59;10.60;99.90
9223;DHT22;7557;51.698;3.942;2022-12-29T10:09:33;10.60;99.90
9223;DHT22;7557;51.698;3.942;2022-12-29T10:12:09;10.70;99.90
9223;DHT22;7557;51.698;3.942;2022-12-29T10:14:47;10.80;99.90
9223;DHT22;7557;51.698;3.942;2022-12-29T10:17:27;10.80;99.90
9223;DHT22;7557;51.698;3.942;2022-12-29T10:23:10;10.80;99.90
9223;DHT22;7557;51.698;3.942;2022-12-29T10:25:40;10.70;99.90
9223;DHT22;7557;51.698;3.942;2022-12-29T10:28:17;10.80;99.90
9223;DHT22;7557;51.698;3.942;2022-12-29T10:30:47;10.80;99.90
9223;DHT22;7557;51.698;3.942;2022-12-29T10:33:19;10.80;99.90
9223;DHT22;7557;51.698;3.942;2022-12-29T10:35:48;10.80;99.90
9223;DHT22;7557;51.698;3.942;2022-12-29T10:38:23;10.80;99.90
9223;DHT22;7557;51.698;3.942;2022-12-29T10:40:58;10.80;99.90
9223;DHT22;7557;51.698;3.942;2022-12-29T10:43:29;10.80;99.90
9223;DHT22;7557;51.698;3.942;2022-12-29T10:45:59;10.80;99.90
9223;DHT22;7557;51.698;3.942;2022-12-29T10:48:32;10.80;99.90
9223;DHT22;7557;51.698;3.942;2022-12-29T10:51:03;10.80;99.90
9223;DHT22;7557;51.698;3.942;2022-12-29T10:53:37;10.80;99.90
9223;DHT22;7557;51.698;3.942;2022-12-29T10:56:13;10.90;99.90
9223;DHT22;7557;51.698;3.942;2022-12-29T10:58:43;10.90;99.90
9223;DHT22;7557;51.698;3.942;2022-12-29T11:01:13;10.90;99.90
9223;DHT22;7557;51.698;3.942;2022-12-29T11:03:54;10.90;99.90
9223;DHT22;7557;51.698;3.942;2022-12-29T11:06:28;10.90;99.90
9223;DHT22;7557;51.698;3.942;2022-12-29T11:08:58;10.90;99.90
9223;DHT22;7557;51.698;3.942;2022-12-29T11:11:32;11.00;99.90
9223;DHT22;7557;51.698;3.942;2022-12-29T11:14:07;11.00;99.90
9223;DHT22;7557;51.698;3.942;2022-12-29T11:16:37;11.00;99.90
9223;DHT22;7557;51.698;3.942;2022-12-29T11:19:05;11.00;99.90
9223;DHT22;7557;51.698;3.942;2022-12-29T11:21:35;11.00;99.90
9223;DHT22;7557;51.698;3.942;2022-12-29T11:24:19;11.00;99.90
9223;DHT22;7557;51.698;3.942;2022-12-29T11:26:49;11.10;99.90
9223;DHT22;7557;51.698;3.942;2022-12-29T11:29:23;11.10;99.90
9223;DHT22;7557;51.698;3.942;2022-12-29T11:31:53;11.20;99.90
9223;DHT22;7557;51.698;3.942;2022-12-29T11:34:24;11.20;99.90
9223;DHT22;7557;51.698;3.942;2022-12-29T11:36:59;11.20;99.90
9223;DHT22;7557;51.698;3.942;2022-12-29T11:39:37;11.10;99.90
9223;DHT22;7557;51.698;3.942;2022-12-29T11:42:11;11.10;99.90
9223;DHT22;7557;51.698;3.942;2022-12-29T11:44:44;11.10;99.90
9223;DHT22;7557;51.698;3.942;2022-12-29T11:47:20;11.10;99.90
9223;DHT22;7557;51.698;3.942;2022-12-29T11:49:53;11.00;99.90
9223;DHT22;7557;51.698;3.942;2022-12-29T11:52:28;11.00;99.90
9223;DHT22;7557;51.698;3.942;2022-12-29T11:54:57;11.00;99.90
9223;DHT22;7557;51.698;3.942;2022-12-29T11:57:26;11.00;99.90
9223;DHT22;7557;51.698;3.942;2022-12-29T11:59:55;11.00;99.90
9223;DHT22;7557;51.698;3.942;2022-12-29T12:02:41;11.10;99.90
9223;DHT22;7557;51.698;3.942;2022-12-29T12:05:22;11.10;99.90
9223;DHT22;7557;51.698;3.942;2022-12-29T12:07:57;11.10;99.90
9223;DHT22;7557;51.698;3.942;2022-12-29T12:10:31;11.10;99.90
9223;DHT22;7557;51.698;3.942;2022-12-29T12:13:05;11.10;99.90
9223;DHT22;7557;51.698;3.942;2022-12-29T12:15:37;11.10;99.90
9223;DHT22;7557;51.698;3.942;2022-12-29T12:18:11;11.00;99.90
9223;DHT22;7557;51.698;3.942;2022-12-29T12:20:48;11.00;99.90
9223;DHT22;7557;51.698;3.942;2022-12-29T12:23:35;11.00;99.90
9223;DHT22;7557;51.698;3.942;2022-12-29T12:26:10;11.00;99.90
9223;DHT22;7557;51.698;3.942;2022-12-29T12:28:46;11.00;99.90
9223;DHT22;7557;51.698;3.942;2022-12-29T12:31:21;11.00;99.90
9223;DHT22;7557;51.698;3.942;2022-12-29T12:33:57;11.00;99.90
9223;DHT22;7557;51.698;3.942;2022-12-29T12:36:55;11.00;99.90
9223;DHT22;7557;51.698;3.942;2022-12-29T12:39:34;11.00;99.90
9223;DHT22;7557;51.698;3.942;2022-12-29T12:42:13;11.00;99.90
9223;DHT22;7557;51.698;3.942;2022-12-29T12:44:55;10.90;99.90
9223;DHT22;7557;51.698;3.942;2022-12-29T12:47:49;10.80;99.90
9223;DHT22;7557;51.698;3.942;2022-12-29T12:50:29;10.80;99.90
9223;DHT22;7557;51.698;3.942;2022-12-29T12:53:12;10.60;99.90
9223;DHT22;7557;51.698;3.942;2022-12-29T12:56:03;10.50;99.90
9223;DHT22;7557;51.698;3.942;2022-12-29T12:58:44;10.30;99.90
9223;DHT22;7557;51.698;3.942;2022-12-29T13:01:28;10.20;99.90
9223;DHT22;7557;51.698;3.942;2022-12-29T13:04:13;10.10;99.90
9223;DHT22;7557;51.698;3.942;2022-12-29T13:06:49;10.20;99.90
9223;DHT22;7557;51.698;3.942;2022-12-29T13:09:42;10.20;99.90
9223;DHT22;7557;51.698;3.942;2022-12-29T13:12:24;10.20;99.90
9223;DHT22;7557;51.698;3.942;2022-12-29T13:15:02;10.20;99.90
9223;DHT22;7557;51.698;3.942;2022-12-29T13:17:41;10.20;99.90
9223;DHT22;7557;51.698;3.942;2022-12-29T13:20:20;10.30;99.90
9223;DHT22;7557;51.698;3.942;2022-12-29T13:22:56;10.40;99.90
9223;DHT22;7557;51.698;3.942;2022-12-29T13:25:30;10.40;99.90
9223;DHT22;7557;51.698;3.942;2022-12-29T13:28:06;10.40;99.90
9223;DHT22;7557;51.698;3.942;2022-12-29T13:30:40;10.50;99.90
9223;DHT22;7557;51.698;3.942;2022-12-29T13:33:16;10.50;99.90
9223;DHT22;7557;51.698;3.942;2022-12-29T13:35:54;10.50;99.90
9223;DHT22;7557;51.698;3.942;2022-12-29T13:38:25;10.40;99.90
9223;DHT22;7557;51.698;3.942;2022-12-29T13:40:59;10.40;99.90
9223;DHT22;7557;51.698;3.942;2022-12-29T13:43:31;10.40;99.90
9223;DHT22;7557;51.698;3.942;2022-12-29T13:46:02;10.40;99.90
9223;DHT22;7557;51.698;3.942;2022-12-29T13:48:38;10.40;99.90
9223;DHT22;7557;51.698;3.942;2022-12-29T13:51:08;10.40;99.90
9223;DHT22;7557;51.698;3.942;2022-12-29T13:53:47;10.40;99.90
9223;DHT22;7557;51.698;3.942;2022-12-29T13:56:19;10.40;99.90
9223;DHT22;7557;51.698;3.942;2022-12-29T13:58:55;10.40;99.90
9223;DHT22;7557;51.698;3.942;2022-12-29T14:01:29;10.40;99.90
9223;DHT22;7557;51.698;3.942;2022-12-29T14:03:58;10.30;99.90
9223;DHT22;7557;51.698;3.942;2022-12-29T14:06:27;10.40;99.90
9223;DHT22;7557;51.698;3.942;2022-12-29T14:08:57;10.40;99.90
9223;DHT22;7557;51.698;3.942;2022-12-29T14:11:31;10.30;99.90
9223;DHT22;7557;51.698;3.942;2022-12-29T14:14:11;10.30;99.90
9223;DHT22;7557;51.698;3.942;2022-12-29T14:16:39;10.30;99.90
9223;DHT22;7557;51.698;3.942;2022-12-29T14:19:14;10.30;99.90
9223;DHT22;7557;51.698;3.942;2022-12-29T14:21:51;10.30;99.90
9223;DHT22;7557;51.698;3.942;2022-12-29T14:24:40;10.30;99.90
9223;DHT22;7557;51.698;3.942;2022-12-29T14:30:59;10.20;99.90
9223;DHT22;7557;51.698;3.942;2022-12-29T14:33:29;10.20;99.90
9223;DHT22;7557;51.698;3.942;2022-12-29T14:35:58;10.10;99.90
9223;DHT22;7557;51.698;3.942;2022-12-29T14:38:45;10.10;99.90
9223;DHT22;7557;51.698;3.942;2022-12-29T14:41:23;10.10;99.90
9223;DHT22;7557;51.698;3.942;2022-12-29T14:44:00;10.10;99.90
9223;DHT22;7557;51.698;3.942;2022-12-29T14:49:24;10.10;99.90
9223;DHT22;7557;51.698;3.942;2022-12-29T14:51:53;10.00;99.90
9223;DHT22;7557;51.698;3.942;2022-12-29T14:54:43;10.00;99.90
9223;DHT22;7557;51.698;3.942;2022-12-29T14:57:19;9.90;99.90
9223;DHT22;7557;51.698;3.942;2022-12-29T14:59:47;9.90;99.90
9223;DHT22;7557;51.698;3.942;2022-12-29T15:02:19;9.90;99.90
9223;DHT22;7557;51.698;3.942;2022-12-29T15:04:49;9.80;99.90
9223;DHT22;7557;51.698;3.942;2022-12-29T15:07:18;9.80;99.90
9223;DHT22;7557;51.698;3.942;2022-12-29T15:09:51;9.70;99.90
9223;DHT22;7557;51.698;3.942;2022-12-29T15:12:26;9.70;99.90
9223;DHT22;7557;51.698;3.942;2022-12-29T15:14:59;9.70;99.90
9223;DHT22;7557;51.698;3.942;2022-12-29T15:17:29;9.60;99.90
9223;DHT22;7557;51.698;3.942;2022-12-29T15:20:03;9.60;99.90
9223;DHT22;7557;51.698;3.942;2022-12-29T15:22:43;9.50;99.90
9223;DHT22;7557;51.698;3.942;2022-12-29T15:25:14;9.50;99.90
9223;DHT22;7557;51.698;3.942;2022-12-29T15:27:48;9.50;99.90
9223;DHT22;7557;51.698;3.942;2022-12-29T15:30:16;9.50;99.90
9223;DHT22;7557;51.698;3.942;2022-12-29T15:32:45;9.40;99.90
9223;DHT22;7557;51.698;3.942;2022-12-29T15:35:27;9.40;99.90
9223;DHT22;7557;51.698;3.942;2022-12-29T15:37:56;9.40;99.90
9223;DHT22;7557;51.698;3.942;2022-12-29T15:40:26;9.30;99.90
9223;DHT22;7557;51.698;3.942;2022-12-29T15:43:21;9.30;99.90
9223;DHT22;7557;51.698;3.942;2022-12-29T15:45:52;9.30;99.90
9223;DHT22;7557;51.698;3.942;2022-12-29T15:48:23;9.20;99.90
9223;DHT22;7557;51.698;3.942;2022-12-29T15:50:52;9.30;99.90
9223;DHT22;7557;51.698;3.942;2022-12-29T15:53:22;9.30;99.90
9223;DHT22;7557;51.698;3.942;2022-12-29T15:55:54;9.20;99.90
9223;DHT22;7557;51.698;3.942;2022-12-29T15:58:24;9.20;99.90
9223;DHT22;7557;51.698;3.942;2022-12-29T16:00:53;9.20;99.90
9223;DHT22;7557;51.698;3.942;2022-12-29T16:03:21;9.20;99.90
9223;DHT22;7557;51.698;3.942;2022-12-29T16:05:54;9.20;99.90
9223;DHT22;7557;51.698;3.942;2022-12-29T16:08:32;9.20;99.90
9223;DHT22;7557;51.698;3.942;2022-12-29T16:11:07;9.10;99.90
9223;DHT22;7557;51.698;3.942;2022-12-29T16:13:44;9.10;99.90
9223;DHT22;7557;51.698;3.942;2022-12-29T16:16:16;9.10;99.90
9223;DHT22;7557;51.698;3.942;2022-12-29T16:18:45;9.10;99.90
9223;DHT22;7557;51.698;3.942;2022-12-29T16:21:19;9.00;99.90
9223;DHT22;7557;51.698;3.942;2022-12-29T16:23:49;9.00;99.90
9223;DHT22;7557;51.698;3.942;2022-12-29T16:26:18;9.00;99.90
9223;DHT22;7557;51.698;3.942;2022-12-29T16:28:49;9.00;99.90
9223;DHT22;7557;51.698;3.942;2022-12-29T16:31:21;9.00;99.90
9223;DHT22;7557;51.698;3.942;2022-12-29T16:33:50;9.00;99.90
9223;DHT22;7557;51.698;3.942;2022-12-29T16:36:31;8.90;99.90
9223;DHT22;7557;51.698;3.942;2022-12-29T16:39:18;8.90;99.90
9223;DHT22;7557;51.698;3.942;2022-12-29T16:41:48;8.90;99.90
9223;DHT22;7557;51.698;3.942;2022-12-29T16:44:17;8.80;99.90
9223;DHT22;7557;51.698;3.942;2022-12-29T16:46:58;8.80;99.90
9223;DHT22;7557;51.698;3.942;2022-12-29T16:49:27;8.80;99.90
9223;DHT22;7557;51.698;3.942;2022-12-29T16:51:57;8.70;99.90
9223;DHT22;7557;51.698;3.942;2022-12-29T16:54:33;8.70;99.90